createdAt,value
2019-01-24T00:01:34.034Z,10.63
2019-01-24T00:04:05.260Z,10.17
2019-01-24T00:06:35.994Z,11.13
2019-01-24T00:09:09.097Z,10.47
2019-01-24T00:11:39.771Z,10.07
2019-01-24T00:14:11.110Z,10.20
2019-01-24T00:16:42.207Z,9.37
2019-01-24T00:19:13.095Z,9.93
2019-01-24T00:21:47.752Z,10.47
2019-01-24T00:24:18.563Z,10.17
2019-01-24T00:26:49.487Z,10.80
2019-01-24T00:29:20.428Z,9.47
2019-01-24T00:31:51.627Z,9.93
2019-01-24T00:34:23.403Z,10.77
2019-01-24T00:36:54.619Z,10.67
2019-01-24T00:39:25.447Z,9.97
2019-01-24T00:41:56.234Z,9.80
2019-01-24T00:44:27.200Z,9.07
2019-01-24T00:46:57.920Z,10.20
2019-01-24T00:49:29.270Z,9.43
2019-01-24T00:51:59.905Z,9.50
2019-01-24T00:54:31.148Z,9.07
2019-01-24T00:57:02.104Z,9.50
2019-01-24T00:59:32.937Z,9.90
2019-01-24T01:02:03.555Z,9.77
2019-01-24T01:04:34.611Z,9.97
2019-01-24T01:07:06.270Z,9.57
2019-01-24T01:09:37.424Z,10.57
2019-01-24T01:12:28.513Z,10.33
2019-01-24T01:14:59.478Z,10.23
2019-01-24T01:17:30.067Z,10.63
2019-01-24T01:20:01.136Z,10.13
2019-01-24T01:22:31.736Z,9.83
2019-01-24T01:25:02.633Z,10.20
2019-01-24T01:27:33.628Z,10.80
2019-01-24T01:30:05.606Z,9.87
2019-01-24T01:32:36.630Z,10.40
2019-01-24T01:35:08.780Z,10.87
2019-01-24T01:37:39.535Z,11.33
2019-01-24T01:40:11.205Z,10.60
2019-01-24T01:42:42.012Z,10.77
2019-01-24T01:45:15.411Z,9.97
2019-01-24T01:47:46.161Z,10.70
2019-01-24T01:50:19.333Z,11.40
2019-01-24T01:52:50.355Z,10.87
2019-01-24T01:55:22.923Z,10.40
2019-01-24T01:57:53.836Z,11.23
2019-01-24T02:00:26.002Z,11.47
2019-01-24T02:02:56.931Z,11.03
2019-01-24T02:05:27.873Z,10.60
2019-01-24T02:07:58.944Z,9.80
2019-01-24T02:10:31.148Z,10.27
2019-01-24T02:13:01.936Z,10.47
2019-01-24T02:15:32.765Z,11.77
2019-01-24T02:18:03.798Z,9.70
2019-01-24T02:20:34.853Z,10.17
2019-01-24T02:23:05.992Z,10.30
2019-01-24T02:25:37.881Z,11.13
2019-01-24T02:28:09.511Z,11.43
2019-01-24T02:30:40.249Z,11.13
2019-01-24T02:33:11.277Z,11.13
2019-01-24T02:35:42.078Z,11.93
2019-01-24T02:38:13.075Z,11.10
2019-01-24T02:40:44.237Z,12.47
2019-01-24T02:43:14.907Z,12.37
2019-01-24T02:45:47.615Z,12.20
2019-01-24T02:48:18.557Z,11.77
2019-01-24T02:50:49.399Z,12.57
2019-01-24T02:53:20.325Z,11.13
2019-01-24T02:55:51.613Z,11.63
2019-01-24T02:58:22.338Z,11.97
2019-01-24T03:00:53.036Z,11.67
2019-01-24T03:03:24.203Z,11.90
2019-01-24T03:05:55.040Z,10.80
2019-01-24T03:08:25.623Z,11.40
2019-01-24T03:10:56.732Z,12.33
2019-01-24T03:13:27.778Z,11.70
2019-01-24T03:15:58.805Z,12.10
2019-01-24T03:18:29.729Z,12.20
2019-01-24T03:21:00.773Z,11.93
2019-01-24T03:23:31.299Z,11.83
2019-01-24T03:26:02.584Z,11.97
2019-01-24T03:28:33.313Z,12.67
2019-01-24T03:31:04.233Z,12.67
2019-01-24T03:33:35.362Z,11.53
2019-01-24T03:36:06.519Z,11.30
2019-01-24T03:38:37.442Z,11.57
2019-01-24T03:41:08.853Z,11.50
2019-01-24T03:43:39.531Z,11.70
2019-01-24T03:46:10.093Z,11.83
2019-01-24T03:48:40.882Z,11.30
2019-01-24T03:51:11.413Z,11.27
2019-01-24T03:53:42.361Z,10.83
2019-01-24T03:56:13.540Z,11.23
2019-01-24T03:58:44.655Z,10.53
2019-01-24T04:01:15.859Z,9.67
2019-01-24T04:03:46.511Z,9.77
2019-01-24T04:06:17.072Z,10.17
2019-01-24T04:08:48.011Z,9.70
2019-01-24T04:11:19.315Z,9.63
2019-01-24T04:13:50.593Z,9.53
2019-01-24T04:16:21.758Z,9.03
2019-01-24T04:18:52.449Z,9.07
2019-01-24T04:21:23.457Z,9.57
2019-01-24T04:23:54.408Z,8.93
2019-01-24T04:26:25.551Z,10.17
2019-01-24T04:28:56.568Z,9.53
2019-01-24T04:31:27.499Z,9.63
2019-01-24T04:33:58.078Z,9.70
2019-01-24T04:36:29.062Z,9.27
2019-01-24T04:39:00.224Z,8.90
2019-01-24T04:41:32.795Z,9.00
2019-01-24T04:44:03.350Z,9.20
2019-01-24T04:46:34.265Z,9.10
2019-01-24T04:49:04.952Z,8.43
2019-01-24T04:51:36.234Z,8.67
2019-01-24T04:54:06.937Z,9.40
2019-01-24T04:56:37.937Z,9.43
2019-01-24T04:59:08.722Z,9.37
2019-01-24T05:01:39.473Z,8.77
2019-01-24T05:04:10.729Z,8.97
2019-01-24T05:06:41.489Z,9.53
2019-01-24T05:09:12.084Z,9.63
2019-01-24T05:11:43.223Z,9.67
2019-01-24T05:14:14.414Z,9.03
2019-01-24T05:16:45.071Z,8.60
2019-01-24T05:19:15.900Z,9.37
2019-01-24T05:21:46.883Z,8.33
2019-01-24T05:24:17.532Z,9.30
2019-01-24T05:26:48.343Z,8.70
2019-01-24T05:29:19.091Z,9.90
2019-01-24T05:31:49.813Z,9.23
2019-01-24T05:34:20.348Z,8.40
2019-01-24T05:36:51.406Z,9.10
2019-01-24T05:39:22.012Z,9.00
2019-01-24T05:41:53.069Z,9.20
2019-01-24T05:44:24.172Z,8.80
2019-01-24T05:46:55.850Z,9.17
2019-01-24T05:49:26.866Z,9.40
2019-01-24T05:51:57.858Z,9.60
2019-01-24T05:54:29.017Z,9.33
2019-01-24T05:56:59.925Z,9.33
2019-01-24T05:59:31.075Z,9.43
2019-01-24T06:02:02.132Z,9.33
2019-01-24T06:04:32.868Z,9.80
2019-01-24T06:07:03.726Z,9.37
2019-01-24T06:09:34.213Z,10.03
2019-01-24T06:12:05.957Z,10.13
2019-01-24T06:14:36.498Z,9.90
2019-01-24T06:17:07.064Z,9.70
2019-01-24T06:19:37.989Z,10.63
2019-01-24T06:22:08.709Z,9.73
2019-01-24T06:24:39.248Z,10.37
2019-01-24T06:27:10.201Z,9.93
2019-01-24T06:29:40.920Z,10.03
2019-01-24T06:32:12.180Z,10.40
2019-01-24T06:34:43.780Z,9.90
2019-01-24T06:37:14.568Z,9.13
2019-01-24T06:39:45.396Z,9.87
2019-01-24T06:42:16.445Z,9.90
2019-01-24T06:44:47.144Z,10.40
2019-01-24T06:47:18.116Z,9.73
2019-01-24T06:49:48.833Z,10.50
2019-01-24T06:52:20.093Z,10.60
2019-01-24T06:54:50.837Z,9.50
2019-01-24T06:57:21.363Z,9.30
2019-01-24T06:59:52.301Z,10.10
2019-01-24T07:02:23.021Z,9.67
2019-01-24T07:04:54.284Z,9.77
2019-01-24T07:07:25.425Z,9.93
2019-01-24T07:09:56.365Z,9.17
2019-01-24T07:12:27.101Z,9.63
2019-01-24T07:14:58.137Z,10.13
2019-01-24T07:17:30.000Z,9.53
2019-01-24T07:20:00.712Z,10.00
2019-01-24T07:22:32.001Z,10.57
2019-01-24T07:25:03.125Z,10.60
2019-01-24T07:27:33.941Z,10.20
2019-01-24T07:30:05.772Z,9.80
2019-01-24T07:32:36.489Z,9.67
2019-01-24T07:35:09.248Z,10.73
2019-01-24T07:37:40.326Z,10.30
2019-01-24T07:40:12.889Z,10.97
2019-01-24T07:42:43.717Z,11.17
2019-01-24T07:45:23.662Z,10.70
2019-01-24T07:47:54.422Z,10.03
2019-01-24T07:50:25.321Z,9.93
2019-01-24T07:52:56.115Z,9.00
2019-01-24T07:55:27.478Z,9.40
2019-01-24T07:57:58.560Z,10.83
2019-01-24T08:00:29.592Z,10.27
2019-01-24T08:03:00.636Z,9.83
2019-01-24T08:05:31.700Z,9.90
2019-01-24T08:08:02.893Z,10.77
2019-01-24T08:10:33.432Z,10.37
2019-01-24T08:13:05.084Z,9.43
2019-01-24T08:15:36.265Z,9.90
2019-01-24T08:18:07.328Z,10.17
2019-01-24T08:20:38.540Z,9.57
2019-01-24T08:23:09.285Z,9.90
2019-01-24T08:25:40.214Z,10.57
2019-01-24T08:28:12.075Z,10.73
2019-01-24T08:30:42.893Z,10.47
2019-01-24T08:33:13.860Z,9.63
2019-01-24T08:35:45.011Z,9.77
2019-01-24T08:38:15.706Z,8.57
2019-01-24T08:40:46.676Z,8.20
2019-01-24T08:43:18.508Z,8.77
2019-01-24T08:45:49.373Z,8.70
2019-01-24T08:48:20.260Z,9.00
2019-01-24T08:50:51.256Z,9.10
2019-01-24T08:53:21.744Z,10.13
2019-01-24T08:55:52.964Z,8.90
2019-01-24T08:58:23.685Z,8.37
2019-01-24T09:00:54.467Z,8.83
2019-01-24T09:03:25.575Z,8.20
2019-01-24T09:05:56.384Z,8.43
2019-01-24T09:08:27.762Z,9.17
2019-01-24T09:10:58.937Z,8.27
2019-01-24T09:13:29.983Z,8.87
2019-01-24T09:16:00.657Z,8.97
2019-01-24T09:18:31.346Z,8.93
2019-01-24T09:21:03.139Z,9.50
2019-01-24T09:23:34.011Z,9.87
2019-01-24T09:26:06.127Z,10.17
2019-01-24T09:28:37.346Z,8.43
2019-01-24T09:31:08.361Z,9.37
2019-01-24T09:33:39.112Z,9.23
2019-01-24T09:36:09.933Z,9.97
2019-01-24T09:38:40.952Z,9.10
2019-01-24T09:41:12.011Z,9.73
2019-01-24T09:43:42.936Z,9.47
2019-01-24T09:46:13.789Z,9.47
2019-01-24T09:48:44.624Z,9.53
2019-01-24T09:51:15.484Z,9.60
2019-01-24T09:53:46.286Z,8.63
2019-01-24T09:56:17.147Z,9.00
2019-01-24T09:58:48.470Z,9.17
2019-01-24T10:01:19.191Z,9.10
2019-01-24T10:03:49.988Z,9.73
2019-01-24T10:06:20.790Z,9.57
2019-01-24T10:08:51.613Z,10.33
2019-01-24T10:11:23.560Z,9.80
2019-01-24T10:13:54.323Z,9.33
2019-01-24T10:16:25.224Z,9.07
2019-01-24T10:18:56.442Z,9.87
2019-01-24T10:21:27.172Z,9.83
2019-01-24T10:23:58.373Z,9.27
2019-01-24T10:26:29.535Z,9.67
2019-01-24T10:29:01.580Z,9.17
2019-01-24T10:31:32.733Z,9.03
2019-01-24T10:34:05.101Z,9.17
2019-01-24T10:36:35.930Z,8.50
2019-01-24T10:39:09.448Z,9.60
2019-01-24T10:41:40.263Z,9.93
2019-01-24T10:44:11.361Z,9.47
2019-01-24T10:46:42.461Z,8.40
2019-01-24T10:49:13.368Z,9.37
2019-01-24T10:51:44.438Z,9.07
2019-01-24T10:54:15.620Z,9.20
2019-01-24T10:56:46.231Z,9.43
2019-01-24T10:59:18.493Z,9.73
2019-01-24T11:01:49.243Z,9.90
2019-01-24T11:04:20.061Z,9.43
2019-01-24T11:06:50.918Z,9.53
2019-01-24T11:09:21.652Z,10.10
2019-01-24T11:11:52.634Z,10.20
2019-01-24T11:14:23.550Z,11.17
2019-01-24T11:16:54.359Z,9.83
2019-01-24T11:19:25.174Z,10.30
2019-01-24T11:21:56.043Z,11.13
2019-01-24T11:24:26.804Z,11.33
2019-01-24T11:26:57.549Z,11.63
2019-01-24T11:29:28.790Z,11.20
2019-01-24T11:31:59.636Z,10.73
2019-01-24T11:34:30.341Z,11.57
2019-01-24T11:37:04.306Z,10.67
2019-01-24T11:39:35.109Z,11.80
2019-01-24T11:42:05.991Z,11.43
2019-01-24T11:44:37.188Z,11.77
2019-01-24T11:47:11.825Z,12.30
2019-01-24T11:49:43.256Z,11.43
2019-01-24T11:52:14.093Z,11.87
2019-01-24T11:54:45.153Z,11.27
2019-01-24T11:57:15.909Z,12.87
2019-01-24T11:59:46.551Z,12.27
2019-01-24T12:02:17.721Z,11.20
2019-01-24T12:04:48.804Z,12.70
2019-01-24T12:07:19.415Z,12.63
2019-01-24T12:09:50.053Z,11.83
2019-01-24T12:12:20.980Z,12.97
2019-01-24T12:14:51.929Z,12.77
2019-01-24T12:17:22.521Z,14.50
2019-01-24T12:19:53.841Z,14.17
2019-01-24T12:22:24.745Z,13.73
2019-01-24T12:24:55.792Z,13.10
2019-01-24T12:27:26.733Z,12.80
2019-01-24T12:29:58.171Z,13.20
2019-01-24T12:32:28.918Z,13.07
2019-01-24T12:34:59.700Z,14.17
2019-01-24T12:37:30.907Z,12.87
2019-01-24T12:40:02.211Z,12.80
2019-01-24T12:42:33.136Z,13.03
2019-01-24T12:45:04.785Z,13.60
2019-01-24T12:47:35.570Z,11.70
2019-01-24T12:50:08.023Z,12.10
2019-01-24T12:52:38.909Z,12.63
2019-01-24T12:55:10.373Z,13.50
2019-01-24T12:57:41.140Z,13.03
2019-01-24T13:00:25.962Z,13.87
2019-01-24T13:02:57.069Z,13.10
2019-01-24T13:05:28.016Z,12.50
2019-01-24T13:07:58.850Z,12.83
2019-01-24T13:10:29.853Z,13.67
2019-01-24T13:13:00.597Z,12.10
2019-01-24T13:15:32.790Z,13.63
2019-01-24T13:18:03.977Z,13.87
2019-01-24T13:20:35.130Z,13.27
2019-01-24T13:23:06.284Z,13.33
2019-01-24T13:25:38.274Z,13.50
2019-01-24T13:28:09.045Z,12.97
2019-01-24T13:30:40.037Z,13.87
2019-01-24T13:33:10.985Z,13.70
2019-01-24T13:35:41.993Z,13.37
2019-01-24T13:38:13.041Z,13.27
2019-01-24T13:40:44.314Z,13.67
2019-01-24T13:43:16.240Z,13.80
2019-01-24T13:45:47.102Z,13.30
2019-01-24T13:48:18.087Z,13.33
2019-01-24T13:50:49.464Z,13.13
2019-01-24T13:53:20.332Z,13.10
2019-01-24T13:55:51.508Z,13.43
2019-01-24T13:58:22.250Z,12.47
2019-01-24T14:00:54.721Z,12.07
2019-01-24T14:03:51.942Z,12.97
2019-01-24T14:06:22.580Z,11.60
2019-01-24T14:08:53.545Z,13.43
2019-01-24T14:11:24.314Z,13.63
2019-01-24T14:13:55.534Z,12.60
2019-01-24T14:16:26.224Z,12.40
2019-01-24T14:18:57.004Z,12.63
2019-01-24T14:21:27.763Z,11.60
2019-01-24T14:23:58.478Z,11.67
2019-01-24T14:26:29.370Z,12.33
2019-01-24T14:29:00.556Z,13.33
2019-01-24T14:31:31.298Z,12.27
2019-01-24T14:34:02.333Z,12.00
2019-01-24T14:36:33.462Z,11.33
2019-01-24T14:39:05.456Z,12.27
2019-01-24T14:41:36.673Z,11.20
2019-01-24T14:44:07.343Z,11.23
2019-01-24T14:46:37.836Z,12.33
2019-01-24T14:49:09.112Z,10.73
2019-01-24T14:51:40.317Z,13.13
2019-01-24T14:54:11.087Z,11.87
2019-01-24T14:56:53.571Z,12.67
2019-01-24T14:59:24.655Z,11.77
2019-01-24T15:01:55.520Z,12.53
2019-01-24T15:04:26.824Z,12.07
2019-01-24T15:06:57.685Z,13.40
2019-01-24T15:09:39.452Z,12.20
2019-01-24T15:12:10.722Z,12.90
2019-01-24T15:14:41.341Z,11.00
2019-01-24T15:17:12.636Z,11.50
2019-01-24T15:19:43.577Z,11.83
2019-01-24T15:22:14.588Z,12.03
2019-01-24T15:24:45.625Z,12.60
2019-01-24T15:27:17.785Z,11.97
2019-01-24T15:29:48.934Z,12.13
2019-01-24T15:32:20.089Z,13.73
2019-01-24T15:34:50.825Z,13.63
2019-01-24T15:37:21.653Z,12.73
2019-01-24T15:39:52.716Z,12.50
2019-01-24T15:42:23.833Z,13.23
2019-01-24T15:44:54.611Z,12.83
2019-01-24T15:47:25.530Z,13.57
2019-01-24T15:49:56.553Z,13.63
2019-01-24T15:52:33.888Z,14.63
2019-01-24T15:54:59.678Z,12.47
2019-01-24T15:57:32.010Z,12.97
2019-01-24T16:00:02.959Z,13.00
2019-01-24T16:02:35.317Z,13.33
2019-01-24T16:05:07.579Z,12.50
2019-01-24T16:07:38.401Z,12.93
2019-01-24T16:10:11.141Z,13.20
2019-01-24T16:12:42.125Z,13.87
2019-01-24T16:15:16.192Z,12.90
2019-01-24T16:17:47.423Z,12.17
2019-01-24T16:20:20.130Z,12.73
2019-01-24T16:22:50.943Z,13.27
2019-01-24T16:25:24.032Z,12.20
2019-01-24T16:27:54.745Z,11.90
2019-01-24T16:30:27.430Z,12.50
2019-01-24T16:32:59.974Z,12.10
2019-01-24T16:35:31.853Z,12.17
2019-01-24T16:38:09.230Z,11.13
2019-01-24T16:40:35.542Z,11.20
2019-01-24T16:43:06.832Z,11.90
2019-01-24T16:45:37.694Z,10.13
2019-01-24T16:48:08.916Z,11.20
2019-01-24T16:50:40.081Z,11.10
2019-01-24T16:53:11.338Z,11.30
2019-01-24T16:55:42.605Z,11.60
2019-01-24T16:58:13.708Z,11.03
2019-01-24T17:00:51.471Z,11.80
2019-01-24T17:03:22.800Z,10.67
2019-01-24T17:05:53.538Z,11.27
2019-01-24T17:08:24.528Z,10.43
2019-01-24T17:10:55.402Z,9.70
2019-01-24T17:13:26.597Z,11.60
2019-01-24T17:15:57.972Z,11.33
2019-01-24T17:18:28.823Z,10.43
2019-01-24T17:20:59.546Z,10.57
2019-01-24T17:23:30.687Z,10.63
2019-01-24T17:26:01.530Z,10.83
2019-01-24T17:28:33.589Z,10.40
2019-01-24T17:31:04.531Z,11.43
2019-01-24T17:33:35.682Z,10.37
2019-01-24T17:36:17.613Z,10.83
2019-01-24T17:38:48.558Z,10.57
2019-01-24T17:41:19.372Z,10.80
2019-01-24T17:43:50.610Z,9.80
2019-01-24T17:46:21.448Z,9.73
2019-01-24T17:48:52.384Z,11.10
2019-01-24T17:51:23.437Z,10.53
2019-01-24T17:53:54.339Z,9.57
2019-01-24T17:56:27.315Z,10.47
2019-01-24T17:58:58.810Z,10.50
2019-01-24T18:01:29.593Z,10.50
2019-01-24T18:04:00.248Z,9.50
2019-01-24T18:06:33.850Z,9.43
2019-01-24T18:09:06.976Z,10.20
2019-01-24T18:11:38.040Z,9.67
2019-01-24T18:14:09.057Z,9.87
2019-01-24T18:16:39.803Z,10.40
2019-01-24T18:19:10.717Z,10.80
2019-01-24T18:21:41.762Z,10.80
2019-01-24T18:24:12.909Z,10.70
2019-01-24T18:26:43.662Z,10.63
2019-01-24T18:29:15.728Z,11.23
2019-01-24T18:31:46.861Z,9.87
2019-01-24T18:34:18.413Z,10.97
2019-01-24T18:36:49.454Z,10.70
2019-01-24T18:39:21.609Z,11.40
2019-01-24T18:41:52.310Z,11.13
2019-01-24T18:44:23.385Z,10.50
2019-01-24T18:46:54.064Z,10.83
2019-01-24T18:49:26.295Z,10.97
2019-01-24T18:51:56.969Z,11.20
2019-01-24T18:54:28.177Z,11.77
2019-01-24T18:56:59.374Z,11.47
2019-01-24T18:59:30.476Z,11.30
2019-01-24T19:02:01.224Z,11.13
2019-01-24T19:04:32.115Z,10.70
2019-01-24T19:07:03.585Z,11.27
2019-01-24T19:09:35.374Z,12.13
2019-01-24T19:12:26.494Z,11.93
2019-01-24T19:14:58.247Z,11.70
2019-01-24T19:17:30.573Z,11.67
2019-01-24T19:20:02.788Z,11.60
2019-01-24T19:22:34.517Z,10.73
2019-01-24T19:25:25.732Z,12.10
2019-01-24T19:27:56.706Z,10.67
2019-01-24T19:30:29.321Z,11.13
2019-01-24T19:33:00.492Z,11.30
2019-01-24T19:35:31.243Z,11.43
2019-01-24T19:38:02.572Z,10.83
2019-01-24T19:40:33.326Z,11.53
2019-01-24T19:43:04.235Z,10.90
2019-01-24T19:45:35.628Z,11.73
2019-01-24T19:48:07.092Z,11.60
2019-01-24T19:50:38.985Z,11.53
2019-01-24T19:53:10.921Z,11.87
2019-01-24T19:55:42.119Z,12.20
2019-01-24T19:58:13.502Z,12.43
2019-01-24T20:00:45.645Z,13.07
2019-01-24T20:03:16.703Z,12.60
2019-01-24T20:05:47.581Z,11.83
2019-01-24T20:08:18.310Z,13.87
2019-01-24T20:10:49.077Z,12.70
2019-01-24T20:13:21.871Z,12.87
2019-01-24T20:15:52.585Z,12.57
2019-01-24T20:18:23.362Z,13.00
2019-01-24T20:20:53.947Z,13.13
2019-01-24T20:23:24.845Z,12.83
2019-01-24T20:25:55.848Z,12.07
2019-01-24T20:28:27.024Z,12.23
2019-01-24T20:30:58.021Z,11.80
2019-01-24T20:33:29.309Z,10.93
2019-01-24T20:36:00.554Z,12.47
2019-01-24T20:38:31.795Z,11.60
2019-01-24T20:41:02.525Z,12.33
2019-01-24T20:43:35.529Z,13.70
2019-01-24T20:46:06.597Z,13.10
2019-01-24T20:48:37.907Z,12.37
2019-01-24T20:51:08.656Z,13.07
2019-01-24T20:53:39.418Z,13.00
2019-01-24T20:56:10.265Z,12.40
2019-01-24T20:58:41.032Z,13.03
2019-01-24T21:01:12.318Z,13.30
2019-01-24T21:03:55.119Z,12.30
2019-01-24T21:06:20.941Z,12.50
2019-01-24T21:08:51.981Z,12.77
2019-01-24T21:11:23.112Z,11.97
2019-01-24T21:13:55.400Z,11.33
2019-01-24T21:16:26.713Z,12.27
2019-01-24T21:18:57.765Z,11.60
2019-01-24T21:21:28.968Z,11.13
2019-01-24T21:24:00.836Z,11.93
2019-01-24T21:26:31.480Z,11.57
2019-01-24T21:29:02.988Z,10.83
2019-01-24T21:31:33.988Z,9.87
2019-01-24T21:34:04.916Z,10.43
2019-01-24T21:36:35.730Z,10.60
2019-01-24T21:39:09.194Z,9.60
2019-01-24T21:41:40.730Z,9.50
2019-01-24T21:44:11.757Z,9.70
2019-01-24T21:46:42.672Z,9.57
2019-01-24T21:49:13.658Z,9.33
2019-01-24T21:51:44.345Z,9.00
2019-01-24T21:54:15.627Z,9.67
2019-01-24T21:56:46.577Z,9.60
2019-01-24T21:59:17.645Z,10.07
2019-01-24T22:01:48.600Z,9.90
2019-01-24T22:04:19.996Z,9.90
2019-01-24T22:06:50.851Z,9.50
2019-01-24T22:09:21.493Z,9.93
2019-01-24T22:11:52.373Z,9.27
2019-01-24T22:14:23.144Z,9.93
2019-01-24T22:16:54.037Z,10.27
2019-01-24T22:19:24.785Z,11.03
2019-01-24T22:21:55.458Z,10.30
2019-01-24T22:24:26.384Z,10.33
2019-01-24T22:26:58.700Z,9.87
2019-01-24T22:29:29.404Z,10.77
2019-01-24T22:32:00.339Z,10.37
2019-01-24T22:34:31.480Z,10.83
2019-01-24T22:37:02.637Z,10.53
2019-01-24T22:39:36.662Z,11.33
2019-01-24T22:42:06.157Z,10.60
2019-01-24T22:44:36.773Z,11.33
2019-01-24T22:47:07.682Z,11.83
2019-01-24T22:49:38.443Z,10.57
2019-01-24T22:52:09.060Z,10.87
2019-01-24T22:54:40.129Z,12.20
2019-01-24T22:57:10.968Z,11.73
2019-01-24T22:59:41.833Z,11.43
2019-01-24T23:02:20.313Z,12.63
2019-01-24T23:04:51.714Z,11.80
2019-01-24T23:07:22.805Z,11.40
2019-01-24T23:09:53.945Z,12.07
2019-01-24T23:12:25.105Z,11.63
2019-01-24T23:14:56.046Z,11.73
2019-01-24T23:17:28.668Z,11.40
2019-01-24T23:19:59.365Z,12.17
2019-01-24T23:22:30.606Z,12.53
2019-01-24T23:25:01.441Z,12.57
2019-01-24T23:27:32.149Z,12.10
2019-01-24T23:30:03.218Z,11.10
2019-01-24T23:32:34.591Z,12.03
2019-01-24T23:35:06.270Z,11.50
2019-01-24T23:37:37.156Z,11.70
2019-01-24T23:40:08.337Z,12.77
2019-01-24T23:42:39.268Z,12.87
2019-01-24T23:45:10.249Z,12.80
2019-01-24T23:47:41.466Z,11.80
2019-01-24T23:50:12.568Z,12.53
2019-01-24T23:52:43.288Z,13.40
2019-01-24T23:55:14.560Z,13.73
2019-01-24T23:57:45.728Z,12.70
